Hovedside
METAR-TAF:

METAR-TAF

Lufthavner :

Georgetown, Ascension

Wideawake Field

breddegrad: 07-58S, lengdegrad: 014-24W, høyde over havet: 86 m

Gjeldene værobservasjon

Denne rapporten ble laget for 31 minutter siden, klokken 20:50 UTC
Vind 13 kt fra Øst-sørøst
Temperatur 24°C
Luftfuktighet 89%
Trykk 1013 hPa
Sikt 10 km eller mer
Spredte skyer i en høyde av 800 ft
Brutte skyer i en høyde av 1800 ft

METAR: FHAW 182050Z 12013KT 9999 SCT008 BKN018 24/22 Q1013 GRN

Tid: 21:21 (21:21 UTC)


TAF: fraværende

Værobservasjoner og værvarsel for over 4000 flyplasser (METAR- og TAF-rapporter).

Tilgjengelige stasjoner er representert av de røde og gule prikkene på kartet.

Hold musepekeren over prikken for å se navnet på stasjonen.

Klikk så for å se værobservasjoner og -varsler.

For å forandre kartet kan du klikke på den grønne knappen med svart kryss for å zoome inn, på den grønne knappen med strek for å zoome ut, eller på de grønne pilene for å se tilstøtende kart.


METAR-TAF: